Skip Navigation Links Skip Navigation Links

Current Weather

Oslo / Gardermoen, Norway

For information only: do not use for flight planning or navigation.
Latest weather
Observation time Wednesday, January 27, 2021 12:50 AM CET
Local time Wednesday, January 27, 2021 1:29 AM CET
Flight conditions Instrument Meteorological Conditions
Winds
Wind direction Northwest (320°)
Wind speed 3 mph
Visibility 6.2 mi.
Sky condition
Ceiling 500 ft. broken clouds
Cloud layer few clouds 200 ft.
Cloud layer broken clouds 500 ft.
Temperature 3°F
Dewpoint 1°F
Altimeter 29.77 in.Hg
Derived measurements
Relative humidity 92%
Wind chill -4°F
Density altitude -3700 ft.
METAR ENGM 262350Z 32003KT 9999 FEW002 BKN005 M16/M17 Q1008

Settings

Location code

InnerDrive.Weather 4.0.6770.0 Release CLR 4.0.30319.42000
Copyright ©2018 Inner Drive Technology. All rights reserved. Portions Copyright ©1986-2018 David Braverman.

Find weather

Site navigation


Skip Navigation Links

Place info

Page info

PayPal - The safer, easier way to pay online!

Return home.

Copyright ©2021 Inner Drive Technology. Purveyors of fine, hand-crafted computer software. Page printed 2021-01-27T00:29:28 UTC.